Terminal Aerodrome Forecast
Issued by NWS Cleveland, OH

Home | Current Version | Previous Version | Text Only | Print | Product List | Glossary On
Versions: 1 2 3 4 5 6 7 8 9 10 11 12 13 14 15 16 17 18 19 20 21 22 23
000
FTUS41 KCLE 290719 AAA
TAFERI
TAF AMD
KERI 290719Z 2907/3006 04006KT P6SM BKN025
      TEMPO 2908/2911 SCT025
     FM291300 02008KT P6SM SCT015 BKN025
     FM291500 02010KT P6SM SCT025 BKN250
     FM300000 07010KT P6SM OVC150=

USA.gov is the U.S. government's official web portal to all federal, state and local government web resources and services.